Time;durP1;ratioP1;P1;durP2;ratioP2;P2;SDS_P1;SDS_P2;PMS_P1;PMS_P2;Temp;Humidity;BMP_temperature;BMP_pressure;BME280_temperature;BME280_humidity;BME280_pressure;Samples;Min_cycle;Max_cycle;Signal;HPM_P1;HPM_P2
2023/12/02 00:02:16;;;;;;;19.17;7.22;;;;;;;;;;5016324;28;20033;-67
2023/12/02 00:04:41;;;;;;;24.60;7.88;;;;;;;;;;5016189;28;20030;-67
2023/12/02 00:07:07;;;;;;;34.28;12.52;;;;;;;;;;5016451;28;20118;-67
2023/12/02 00:09:34;;;;;;;26.70;11.60;;;;;;;;;;5016188;28;20061;-66
2023/12/02 00:11:59;;;;;;;28.05;10.88;;;;;;;;;;5016151;28;20029;-66
2023/12/02 00:14:24;;;;;;;34.83;11.15;;;;;;;;;;5016389;28;20073;-68
2023/12/02 00:16:50;;;;;;;30.58;8.63;;;;;;;;;;5016149;28;20030;-67
2023/12/02 00:19:15;;;;;;;18.60;6.38;;;;;;;;;;5016314;28;20121;-68
2023/12/02 00:21:41;;;;;;;25.50;8.30;;;;;;;;;;5012417;28;20026;-67
2023/12/02 00:24:06;;;;;;;23.95;8.63;;;;;;;;;;5016019;28;20470;-67
2023/12/02 00:26:32;;;;;;;25.90;12.13;;;;;;;;;;5015601;28;20042;-68
2023/12/02 00:28:57;;;;;;;23.02;7.70;;;;;;;;;;5015992;28;20030;-67
2023/12/02 00:31:23;;;;;;;7.90;5.38;;;;;;;;;;5015975;28;20061;-67
2023/12/02 00:33:48;;;;;;;11.70;6.65;;;;;;;;;;5015857;28;20079;-67
2023/12/02 00:36:14;;;;;;;8.57;4.38;;;;;;;;;;5015950;28;20528;-68
2023/12/02 00:38:39;;;;;;;9.48;4.65;;;;;;;;;;5015724;28;20438;-67
2023/12/02 00:41:08;;;;;;;14.02;5.80;;;;;;;;;;5015707;28;20041;-67
2023/12/02 00:43:33;;;;;;;8.10;4.68;;;;;;;;;;5015885;28;20029;-67
2023/12/02 00:46:00;;;;;;;10.30;5.03;;;;;;;;;;5015838;28;20026;-68
2023/12/02 00:48:25;;;;;;;17.58;7.15;;;;;;;;;;5015838;28;20030;-67
2023/12/02 00:50:51;;;;;;;17.35;7.15;;;;;;;;;;5015716;28;20029;-67
2023/12/02 00:53:16;;;;;;;10.80;5.25;;;;;;;;;;5015615;28;20081;-68
2023/12/02 00:55:41;;;;;;;13.05;5.80;;;;;;;;;;5015315;28;20052;-68
2023/12/02 00:58:07;;;;;;;15.75;6.55;;;;;;;;;;5015423;28;20382;-67
2023/12/02 01:00:32;;;;;;;13.02;6.55;;;;;;;;;;5015480;28;20399;-67
2023/12/02 01:02:58;;;;;;;13.75;5.80;;;;;;;;;;5015419;28;20025;-67
2023/12/02 01:05:23;;;;;;;23.35;7.45;;;;;;;;;;5014877;28;20026;-68
2023/12/02 01:07:48;;;;;;;21.48;8.50;;;;;;;;;;5015428;28;20025;-68
2023/12/02 01:10:15;;;;;;;19.70;6.65;;;;;;;;;;5014958;28;20037;-67
2023/12/02 01:12:40;;;;;;;13.88;6.40;;;;;;;;;;5015146;28;20026;-67
2023/12/02 01:15:06;;;;;;;17.70;7.57;;;;;;;;;;5015291;28;20081;-68
2023/12/02 01:17:31;;;;;;;32.55;9.05;;;;;;;;;;5014643;28;20450;-68
2023/12/02 01:19:57;;;;;;;29.50;9.55;;;;;;;;;;5012498;28;20438;-68
2023/12/02 01:22:22;;;;;;;31.45;10.35;;;;;;;;;;5014125;28;20513;-67
2023/12/02 01:24:48;;;;;;;22.88;9.73;;;;;;;;;;5014478;28;20034;-68
2023/12/02 01:27:13;;;;;;;16.85;8.38;;;;;;;;;;5014824;28;20040;-68
2023/12/02 01:29:39;;;;;;;21.13;8.25;;;;;;;;;;5014912;28;20137;-68
2023/12/02 01:32:04;;;;;;;21.92;9.07;;;;;;;;;;5013809;28;20121;-67
2023/12/02 01:34:30;;;;;;;29.60;9.88;;;;;;;;;;5014886;28;20022;-68
2023/12/02 01:36:56;;;;;;;34.47;10.23;;;;;;;;;;5014782;28;20113;-68
2023/12/02 01:39:21;;;;;;;27.30;9.27;;;;;;;;;;5014492;28;20022;-68
2023/12/02 01:41:47;;;;;;;34.65;10.10;;;;;;;;;;5014768;28;20021;-67
2023/12/02 01:44:12;;;;;;;29.80;10.43;;;;;;;;;;5014738;28;20475;-68
2023/12/02 01:46:38;;;;;;;26.08;8.82;;;;;;;;;;5014506;28;20061;-67
2023/12/02 01:49:06;;;;;;;35.63;10.27;;;;;;;;;;5014596;28;20021;-67
2023/12/02 01:51:32;;;;;;;25.20;9.35;;;;;;;;;;5013771;28;20033;-68
2023/12/02 01:53:57;;;;;;;23.60;9.68;;;;;;;;;;5014234;28;20017;-68
2023/12/02 01:56:23;;;;;;;17.10;7.25;;;;;;;;;;5014638;28;20028;-68
2023/12/02 01:58:48;;;;;;;22.45;8.57;;;;;;;;;;5014316;28;20109;-67
2023/12/02 02:01:14;;;;;;;20.38;8.02;;;;;;;;;;5014393;28;20495;-67
2023/12/02 02:03:39;;;;;;;20.75;8.05;;;;;;;;;;5014367;28;20465;-68
2023/12/02 02:06:08;;;;;;;24.02;8.02;;;;;;;;;;5014279;28;20030;-67
2023/12/02 02:08:33;;;;;;;20.60;7.47;;;;;;;;;;5013866;28;20471;-67
2023/12/02 02:10:59;;;;;;;20.67;8.38;;;;;;;;;;5014090;28;20117;-67
2023/12/02 02:13:25;;;;;;;23.90;8.13;;;;;;;;;;5013977;28;20061;-68
2023/12/02 02:15:51;;;;;;;30.10;8.13;;;;;;;;;;5013547;28;20347;-67
2023/12/02 02:18:16;;;;;;;16.30;7.07;;;;;;;;;;5013808;28;20041;-68
2023/12/02 02:20:48;;;;;;;11.45;6.18;;;;;;;;;;5010036;28;20052;-68
2023/12/02 02:23:14;;;;;;;19.30;6.28;;;;;;;;;;5013783;28;20479;-68
2023/12/02 02:25:39;;;;;;;13.70;6.72;;;;;;;;;;5013385;28;20042;-68
2023/12/02 02:28:04;;;;;;;18.73;6.53;;;;;;;;;;5013882;28;20084;-68
2023/12/02 02:30:30;;;;;;;17.70;7.95;;;;;;;;;;5012468;28;20084;-68
2023/12/02 02:32:55;;;;;;;16.35;7.05;;;;;;;;;;5013684;28;20053;-68
2023/12/02 02:35:21;;;;;;;17.65;6.82;;;;;;;;;;5013606;28;20490;-68
2023/12/02 02:37:46;;;;;;;19.17;9.15;;;;;;;;;;5013372;28;20033;-67
2023/12/02 02:40:12;;;;;;;15.63;7.88;;;;;;;;;;5013463;28;20037;-68
2023/12/02 02:42:37;;;;;;;14.80;7.00;;;;;;;;;;5013588;28;20029;-68
2023/12/02 02:45:03;;;;;;;12.93;5.57;;;;;;;;;;5013483;28;20076;-68
2023/12/02 02:47:28;;;;;;;13.65;5.78;;;;;;;;;;5013314;28;20114;-68
2023/12/02 02:49:54;;;;;;;8.73;4.55;;;;;;;;;;5013429;28;20024;-67
2023/12/02 02:52:19;;;;;;;7.80;3.40;;;;;;;;;;5013230;28;20492;-68
2023/12/02 02:54:45;;;;;;;10.52;5.05;;;;;;;;;;5013162;28;20024;-68
2023/12/02 02:57:10;;;;;;;12.57;4.55;;;;;;;;;;5013219;28;20122;-68
2023/12/02 02:59:36;;;;;;;7.88;4.50;;;;;;;;;;5013244;28;20033;-68
2023/12/02 03:02:01;;;;;;;13.25;5.93;;;;;;;;;;5013305;28;20518;-67
2023/12/02 03:04:26;;;;;;;19.48;10.95;;;;;;;;;;5013198;28;20052;-68
2023/12/02 03:06:52;;;;;;;15.27;8.50;;;;;;;;;;5012910;28;20379;-67
2023/12/02 03:09:18;;;;;;;11.00;4.82;;;;;;;;;;5011799;28;20472;-68
2023/12/02 03:11:45;;;;;;;8.00;4.55;;;;;;;;;;5011617;28;20383;-68
2023/12/02 03:14:10;;;;;;;6.90;3.60;;;;;;;;;;5013011;28;20029;-68
2023/12/02 03:16:36;;;;;;;9.65;4.78;;;;;;;;;;5011682;28;20459;-68
2023/12/02 03:19:01;;;;;;;10.82;4.65;;;;;;;;;;5012912;28;20037;-68
2023/12/02 03:21:27;;;;;;;12.75;4.20;;;;;;;;;;5008751;28;20068;-68
2023/12/02 03:23:52;;;;;;;8.65;4.38;;;;;;;;;;5012868;28;20033;-68
2023/12/02 03:26:18;;;;;;;9.57;4.65;;;;;;;;;;5012604;28;20045;-68
2023/12/02 03:28:43;;;;;;;13.52;5.88;;;;;;;;;;5012558;28;20080;-68
2023/12/02 03:31:09;;;;;;;12.75;4.95;;;;;;;;;;5012730;28;20026;-68
2023/12/02 03:33:34;;;;;;;14.15;6.70;;;;;;;;;;5012746;28;20030;-68
2023/12/02 03:36:01;;;;;;;12.30;5.05;;;;;;;;;;5012404;28;20032;-68
2023/12/02 03:38:26;;;;;;;15.52;6.18;;;;;;;;;;5012780;28;20386;-68
2023/12/02 03:40:52;;;;;;;11.13;5.25;;;;;;;;;;5012662;28;20029;-68
2023/12/02 03:43:17;;;;;;;14.32;5.63;;;;;;;;;;5012675;28;20110;-68
2023/12/02 03:45:43;;;;;;;14.85;6.45;;;;;;;;;;5012587;28;20112;-67
2023/12/02 03:48:09;;;;;;;20.02;7.03;;;;;;;;;;5012746;28;20487;-67
2023/12/02 03:50:35;;;;;;;21.63;6.88;;;;;;;;;;5012628;28;20414;-66
2023/12/02 03:53:00;;;;;;;17.33;6.50;;;;;;;;;;5012542;28;20030;-67
2023/12/02 03:55:26;;;;;;;16.45;7.53;;;;;;;;;;5012503;28;20057;-68
2023/12/02 03:57:51;;;;;;;12.85;6.07;;;;;;;;;;5012620;28;20057;-68
2023/12/02 04:00:19;;;;;;;23.52;7.03;;;;;;;;;;5012610;28;20030;-67
2023/12/02 04:02:45;;;;;;;16.75;6.65;;;;;;;;;;5012414;28;20030;-68
2023/12/02 04:05:13;;;;;;;12.27;6.15;;;;;;;;;;5012228;28;20030;-67
2023/12/02 04:07:39;;;;;;;20.98;7.32;;;;;;;;;;5012565;28;20391;-67
2023/12/02 04:10:05;;;;;;;12.85;5.57;;;;;;;;;;5012337;28;20054;-67
2023/12/02 04:12:31;;;;;;;20.75;7.82;;;;;;;;;;5012394;28;20014;-67
2023/12/02 04:14:57;;;;;;;19.17;5.70;;;;;;;;;;5012353;28;20446;-67
2023/12/02 04:17:22;;;;;;;17.38;7.47;;;;;;;;;;5012346;28;20061;-66
2023/12/02 04:19:48;;;;;;;16.38;7.50;;;;;;;;;;5010910;28;20030;-67
2023/12/02 04:22:15;;;;;;;19.40;9.35;;;;;;;;;;5009651;28;20065;-67
2023/12/02 04:24:40;;;;;;;20.33;8.75;;;;;;;;;;5011983;28;20036;-67
2023/12/02 04:27:07;;;;;;;20.05;9.18;;;;;;;;;;5012244;28;20120;-67
2023/12/02 04:29:35;;;;;;;17.63;9.90;;;;;;;;;;5012090;28;20022;-67
2023/12/02 04:32:00;;;;;;;17.73;8.05;;;;;;;;;;5012087;28;20030;-67
2023/12/02 04:34:26;;;;;;;16.95;8.27;;;;;;;;;;5010704;28;20034;-67
2023/12/02 04:36:51;;;;;;;17.77;8.43;;;;;;;;;;5011912;28;20408;-66
2023/12/02 04:39:16;;;;;;;18.73;7.35;;;;;;;;;;5012613;28;20379;-67
2023/12/02 04:41:42;;;;;;;14.27;7.65;;;;;;;;;;5016003;28;20468;-67
2023/12/02 04:44:08;;;;;;;14.48;7.13;;;;;;;;;;5015792;28;20084;-67
2023/12/02 04:46:33;;;;;;;17.00;8.25;;;;;;;;;;5015841;28;20379;-67
2023/12/02 04:48:58;;;;;;;13.70;6.65;;;;;;;;;;5015533;28;20375;-67
2023/12/02 04:51:24;;;;;;;20.48;5.97;;;;;;;;;;5015642;28;20055;-67
2023/12/02 04:53:49;;;;;;;18.83;7.68;;;;;;;;;;5015586;28;20030;-67
2023/12/02 04:56:15;;;;;;;17.05;7.82;;;;;;;;;;5015461;28;20034;-67
2023/12/02 04:58:40;;;;;;;15.68;7.43;;;;;;;;;;5015243;28;20122;-67
2023/12/02 05:01:06;;;;;;;20.75;8.07;;;;;;;;;;5014405;28;20464;-67
2023/12/02 05:03:32;;;;;;;17.30;7.15;;;;;;;;;;5015200;28;20570;-68
2023/12/02 05:05:57;;;;;;;20.27;7.32;;;;;;;;;;5015102;28;20033;-67
2023/12/02 05:08:23;;;;;;;16.88;8.10;;;;;;;;;;5015292;28;20092;-67
2023/12/02 05:10:48;;;;;;;21.75;9.55;;;;;;;;;;5015014;28;20032;-67
2023/12/02 05:13:14;;;;;;;11.63;6.45;;;;;;;;;;5015258;28;20037;-67
2023/12/02 05:15:40;;;;;;;17.42;7.30;;;;;;;;;;5015353;28;20483;-67
2023/12/02 05:18:05;;;;;;;10.82;5.28;;;;;;;;;;5014788;28;20391;-67
2023/12/02 05:20:30;;;;;;;12.70;6.53;;;;;;;;;;5011279;28;20021;-66
2023/12/02 05:22:56;;;;;;;12.20;6.05;;;;;;;;;;5014796;28;20061;-68
2023/12/02 05:25:21;;;;;;;14.45;6.30;;;;;;;;;;5014517;28;20046;-66
2023/12/02 05:27:47;;;;;;;15.35;7.07;;;;;;;;;;5014923;28;20038;-66
2023/12/02 05:30:12;;;;;;;12.52;6.95;;;;;;;;;;5014731;28;20104;-66
2023/12/02 05:32:38;;;;;;;12.55;8.05;;;;;;;;;;5014463;28;20112;-67
2023/12/02 05:35:05;;;;;;;10.35;4.93;;;;;;;;;;5014826;28;20045;-67
2023/12/02 05:37:31;;;;;;;9.85;4.65;;;;;;;;;;5014639;28;20505;-68
2023/12/02 05:39:56;;;;;;;9.73;5.00;;;;;;;;;;5014858;28;20101;-67
2023/12/02 05:42:22;;;;;;;12.55;5.80;;;;;;;;;;5014653;28;20026;-67
2023/12/02 05:44:47;;;;;;;9.75;4.95;;;;;;;;;;5014468;28;20026;-67
2023/12/02 05:47:13;;;;;;;10.95;4.35;;;;;;;;;;5014345;28;20341;-67
2023/12/02 05:49:41;;;;;;;18.15;5.63;;;;;;;;;;5014545;28;20542;-67
2023/12/02 05:52:06;;;;;;;12.98;4.20;;;;;;;;;;5014427;28;20022;-67
2023/12/02 05:54:32;;;;;;;9.95;4.70;;;;;;;;;;5014528;28;20033;-67
2023/12/02 05:56:57;;;;;;;11.80;6.18;;;;;;;;;;5014183;28;20037;-67
2023/12/02 05:59:23;;;;;;;12.90;5.85;;;;;;;;;;5014277;28;20030;-67
2023/12/02 06:01:48;;;;;;;10.95;5.63;;;;;;;;;;5014124;28;20065;-67
2023/12/02 06:04:14;;;;;;;9.25;4.90;;;;;;;;;;5014194;28;20386;-67
2023/12/02 06:06:44;;;;;;;10.45;5.07;;;;;;;;;;5014183;28;20025;-68
2023/12/02 06:09:09;;;;;;;12.75;6.07;;;;;;;;;;5014213;28;20116;-68
2023/12/02 06:11:34;;;;;;;11.70;6.05;;;;;;;;;;5013965;28;20432;-67
2023/12/02 06:14:00;;;;;;;12.10;5.47;;;;;;;;;;5013882;28;20035;-67
2023/12/02 06:16:25;;;;;;;11.95;5.28;;;;;;;;;;5014138;28;20029;-67
2023/12/02 06:18:51;;;;;;;8.55;4.40;;;;;;;;;;5013763;28;20369;-67
2023/12/02 06:21:16;;;;;;;10.98;4.85;;;;;;;;;;5008870;28;20511;-67
2023/12/02 06:23:42;;;;;;;10.80;5.28;;;;;;;;;;5013836;28;20026;-66
2023/12/02 06:26:07;;;;;;;14.02;5.72;;;;;;;;;;5012270;28;20041;-67
2023/12/02 06:28:33;;;;;;;17.15;6.63;;;;;;;;;;5013542;28;20108;-66
2023/12/02 06:30:58;;;;;;;39.28;15.55;;;;;;;;;;5013601;28;20105;-67
2023/12/02 06:33:24;;;;;;;38.17;14.25;;;;;;;;;;5013520;28;20108;-67
2023/12/02 06:35:49;;;;;;;40.97;18.20;;;;;;;;;;5013478;28;20056;-67
2023/12/02 06:38:14;;;;;;;44.53;17.23;;;;;;;;;;5013604;28;20053;-67
2023/12/02 06:40:40;;;;;;;25.05;13.63;;;;;;;;;;5013375;28;20026;-67
2023/12/02 06:43:05;;;;;;;20.33;9.95;;;;;;;;;;5013067;28;20408;-67
2023/12/02 06:45:31;;;;;;;17.52;9.13;;;;;;;;;;5013536;28;20030;-67
2023/12/02 06:47:57;;;;;;;14.35;7.07;;;;;;;;;;5012238;28;20505;-67
2023/12/02 06:50:22;;;;;;;20.58;7.45;;;;;;;;;;5013504;28;20069;-66
2023/12/02 06:52:48;;;;;;;18.25;7.43;;;;;;;;;;5013361;28;20030;-67
2023/12/02 06:55:13;;;;;;;21.73;9.38;;;;;;;;;;5013328;28;20081;-67
2023/12/02 06:57:39;;;;;;;14.95;6.35;;;;;;;;;;5012984;28;20099;-67
2023/12/02 07:00:05;;;;;;;13.32;5.95;;;;;;;;;;5013300;28;20464;-67
2023/12/02 07:02:32;;;;;;;9.65;5.00;;;;;;;;;;5012581;28;20053;-67
2023/12/02 07:04:58;;;;;;;8.88;4.53;;;;;;;;;;5011804;28;20459;-67
2023/12/02 07:07:23;;;;;;;14.57;6.30;;;;;;;;;;5013132;28;20029;-67
2023/12/02 07:09:48;;;;;;;18.38;7.43;;;;;;;;;;5013058;28;20025;-67
2023/12/02 07:12:14;;;;;;;15.00;5.72;;;;;;;;;;5012990;28;20026;-67
2023/12/02 07:14:39;;;;;;;8.57;4.15;;;;;;;;;;5012868;28;20511;-68
2023/12/02 07:17:05;;;;;;;11.55;6.22;;;;;;;;;;5013087;28;20450;-68
2023/12/02 07:19:30;;;;;;;26.80;11.75;;;;;;;;;;5012819;28;20026;-67
2023/12/02 07:21:55;;;;;;;17.75;8.52;;;;;;;;;;5009109;28;20028;-68
2023/12/02 07:24:21;;;;;;;19.23;6.90;;;;;;;;;;5012407;28;20022;-68
2023/12/02 07:26:46;;;;;;;44.08;18.05;;;;;;;;;;5012054;28;20038;-68
2023/12/02 07:29:12;;;;;;;27.65;11.63;;;;;;;;;;5012672;28;20478;-68
2023/12/02 07:31:37;;;;;;;32.67;13.30;;;;;;;;;;5012861;28;20028;-68
2023/12/02 07:34:02;;;;;;;18.27;7.90;;;;;;;;;;5012613;28;20055;-67
2023/12/02 07:36:28;;;;;;;11.88;6.03;;;;;;;;;;5011489;28;20382;-68
2023/12/02 07:38:53;;;;;;;13.70;6.93;;;;;;;;;;5012382;28;20026;-68
2023/12/02 07:41:19;;;;;;;12.68;7.07;;;;;;;;;;5012495;28;20018;-68
2023/12/02 07:43:44;;;;;;;19.55;8.98;;;;;;;;;;5012628;28;20105;-68
2023/12/02 07:46:10;;;;;;;15.48;7.80;;;;;;;;;;5012569;28;20463;-68
2023/12/02 07:48:35;;;;;;;18.40;9.23;;;;;;;;;;5012435;28;20029;-68
2023/12/02 07:51:04;;;;;;;25.92;10.93;;;;;;;;;;5012421;28;20054;-68
2023/12/02 07:53:30;;;;;;;35.17;15.63;;;;;;;;;;5012564;28;20061;-68
2023/12/02 07:55:55;;;;;;;36.25;15.68;;;;;;;;;;5010803;28;20057;-68
2023/12/02 07:58:21;;;;;;;25.13;8.65;;;;;;;;;;5012334;28;20084;-68
2023/12/02 08:00:46;;;;;;;49.85;16.45;;;;;;;;;;5012261;28;20085;-68
2023/12/02 08:03:11;;;;;;;27.30;8.35;;;;;;;;;;5012355;28;20088;-68
2023/12/02 08:05:40;;;;;;;36.63;13.60;;;;;;;;;;5011064;28;20475;-68
2023/12/02 08:08:05;;;;;;;35.40;11.75;;;;;;;;;;5012350;28;20030;-68
2023/12/02 08:10:31;;;;;;;29.02;11.30;;;;;;;;;;5012003;28;20018;-68
2023/12/02 08:12:56;;;;;;;18.40;8.20;;;;;;;;;;5012089;28;20049;-68
2023/12/02 08:15:22;;;;;;;8.68;4.40;;;;;;;;;;5032436;28;20025;-67
2023/12/02 08:17:47;;;;;;;16.67;9.27;;;;;;;;;;5036177;28;20021;-67
2023/12/02 08:20:13;;;;;;;9.02;4.28;;;;;;;;;;5031296;28;20026;-67
2023/12/02 08:22:38;;;;;;;7.70;4.28;;;;;;;;;;5015967;28;20157;-68
2023/12/02 08:25:04;;;;;;;27.25;11.00;;;;;;;;;;5015634;28;20077;-68
2023/12/02 08:27:30;;;;;;;18.52;8.05;;;;;;;;;;5015844;28;20045;-68
2023/12/02 08:29:55;;;;;;;23.17;9.77;;;;;;;;;;5015827;28;20102;-67
2023/12/02 08:32:20;;;;;;;23.52;10.63;;;;;;;;;;5015942;28;20026;-68
2023/12/02 08:34:46;;;;;;;36.60;13.52;;;;;;;;;;5015682;28;20479;-68
2023/12/02 08:37:11;;;;;;;16.15;7.97;;;;;;;;;;5015731;28;20026;-67
2023/12/02 08:39:39;;;;;;;36.47;15.30;;;;;;;;;;5015477;28;20441;-68
2023/12/02 08:42:05;;;;;;;22.77;9.75;;;;;;;;;;5015478;28;20034;-68
2023/12/02 08:44:30;;;;;;;23.60;8.02;;;;;;;;;;5015703;28;20037;-68
2023/12/02 08:46:58;;;;;;;9.88;4.63;;;;;;;;;;5015509;28;20076;-67
2023/12/02 08:49:24;;;;;;;65.53;20.05;;;;;;;;;;5015669;28;20048;-68
2023/12/02 08:51:49;;;;;;;28.05;11.43;;;;;;;;;;5015548;28;20470;-68
2023/12/02 08:54:15;;;;;;;24.67;9.68;;;;;;;;;;5015353;28;20435;-67
2023/12/02 08:56:40;;;;;;;12.07;6.00;;;;;;;;;;5015437;28;20053;-67
2023/12/02 08:59:06;;;;;;;13.43;5.93;;;;;;;;;;5026091;28;20033;-67
2023/12/02 09:01:31;;;;;;;8.48;4.32;;;;;;;;;;5020823;28;20033;-67
2023/12/02 09:03:57;;;;;;;8.50;3.78;;;;;;;;;;5010175;28;20403;-67
2023/12/02 09:06:22;;;;;;;5.50;3.35;;;;;;;;;;5013165;28;20030;-67
2023/12/02 09:08:48;;;;;;;6.43;3.55;;;;;;;;;;5030481;28;20030;-67
2023/12/02 09:11:13;;;;;;;11.30;5.63;;;;;;;;;;5015517;28;20152;-68
2023/12/02 09:13:39;;;;;;;7.03;3.55;;;;;;;;;;5013815;28;20035;-67
2023/12/02 09:16:07;;;;;;;6.80;5.03;;;;;;;;;;5015299;28;20037;-68
2023/12/02 09:18:37;;;;;;;13.75;4.78;;;;;;;;;;5014982;28;20096;-68
2023/12/02 09:21:03;;;;;;;9.32;4.35;;;;;;;;;;5009903;28;20128;-68
2023/12/02 09:23:29;;;;;;;14.63;7.13;;;;;;;;;;5018066;28;20033;-67
2023/12/02 09:25:58;;;;;;;23.15;8.75;;;;;;;;;;5028946;28;20046;-67
2023/12/02 09:28:27;;;;;;;17.67;6.97;;;;;;;;;;5015141;28;20030;-67
2023/12/02 09:30:54;;;;;;;15.23;6.30;;;;;;;;;;5014660;28;20093;-67
2023/12/02 09:33:20;;;;;;;32.47;11.40;;;;;;;;;;5015092;28;20026;-67
2023/12/02 09:35:47;;;;;;;22.90;9.10;;;;;;;;;;5008899;28;20430;-67
2023/12/02 09:38:14;;;;;;;43.75;19.17;;;;;;;;;;5004187;28;20033;-68
2023/12/02 09:41:14;;;;;;;32.20;21.02;;;;;;;;;;5005508;28;20027;-67
2023/12/02 09:44:03;;;;;;;15.32;9.13;;;;;;;;;;5005423;28;20033;-67
2023/12/02 09:46:36;;;;;;;9.80;5.35;;;;;;;;;;5006304;28;20022;-67
2023/12/02 09:49:21;;;;;;;17.63;8.35;;;;;;;;;;5003027;28;20030;-67
2023/12/02 09:51:46;;;;;;;16.73;8.70;;;;;;;;;;5005313;28;20033;-67
2023/12/02 09:54:28;;;;;;;13.25;6.32;;;;;;;;;;5003168;28;20026;-68
2023/12/02 09:57:05;;;;;;;8.10;5.18;;;;;;;;;;4994775;28;20035;-67
2023/12/02 09:59:50;;;;;;;10.15;4.32;;;;;;;;;;5024377;28;20025;-67
2023/12/02 10:02:33;;;;;;;13.02;6.03;;;;;;;;;;5033991;28;20092;-67
2023/12/02 10:05:13;;;;;;;14.68;6.22;;;;;;;;;;5034010;28;20033;-67
2023/12/02 10:07:59;;;;;;;11.45;6.70;;;;;;;;;;5008761;28;20076;-67
2023/12/02 10:10:30;;;;;;;11.75;5.28;;;;;;;;;;5016860;28;20037;-66
2023/12/02 10:13:07;;;;;;;;;;;;;;;;;;5023340;28;20095;-67
2023/12/02 10:15:35;;;;;;;9.13;3.75;;;;;;;;;;5017229;28;19913;-68
2023/12/02 10:18:12;;;;;;;7.47;4.28;;;;;;;;;;5029594;28;20407;-67
2023/12/02 10:20:41;;;;;;;4.93;3.05;;;;;;;;;;5010783;28;20108;-68
2023/12/02 10:23:31;;;;;;;10.82;6.30;;;;;;;;;;5026361;28;20022;-68
2023/12/02 10:26:08;;;;;;;10.48;4.38;;;;;;;;;;5013058;28;20049;-67
2023/12/02 10:28:53;;;;;;;15.38;7.97;;;;;;;;;;5013760;28;20095;-67
2023/12/02 10:31:25;;;;;;;10.50;5.53;;;;;;;;;;4972450;28;20074;-67
2023/12/02 10:34:21;;;;;;;12.43;6.97;;;;;;;;;;4972472;28;20484;-68
2023/12/02 10:36:50;;;;;;;8.85;4.60;;;;;;;;;;4971696;28;20038;-67
2023/12/02 10:39:34;;;;;;;8.60;4.28;;;;;;;;;;4972360;28;20109;-68
2023/12/02 10:42:02;;;;;;;6.93;3.80;;;;;;;;;;4961539;28;20182;-67
2023/12/02 10:44:34;;;;;;;13.15;6.78;;;;;;;;;;4952886;28;20034;-67
2023/12/02 10:47:00;;;;;;;13.90;6.18;;;;;;;;;;4955127;28;20046;-66
2023/12/02 10:49:30;;;;;;;18.92;7.30;;;;;;;;;;4956470;28;20094;-67
2023/12/02 10:51:58;;;;;;;20.13;8.37;;;;;;;;;;4951458;28;20047;-67
2023/12/02 10:54:28;;;;;;;11.35;5.85;;;;;;;;;;4953005;28;20651;-67
2023/12/02 10:57:08;;;;;;;13.07;6.15;;;;;;;;;;4952481;28;20035;-67
2023/12/02 10:59:48;;;;;;;11.63;4.57;;;;;;;;;;4951156;29;20481;-67
2023/12/02 11:02:30;;;;;;;16.03;7.90;;;;;;;;;;4952995;29;20031;-67
2023/12/02 11:05:14;;;;;;;78.13;24.50;;;;;;;;;;4952742;28;20046;-67
2023/12/02 11:07:45;;;;;;;13.43;6.28;;;;;;;;;;4960541;28;20073;-67
2023/12/02 11:10:13;;;;;;;12.68;5.43;;;;;;;;;;5006134;28;20014;-67
2023/12/02 11:12:44;;;;;;;16.40;8.05;;;;;;;;;;5030759;28;20052;-67
2023/12/02 11:15:13;;;;;;;33.50;13.85;;;;;;;;;;5032052;28;20582;-67
2023/12/02 11:17:47;;;;;;;38.58;12.45;;;;;;;;;;5031876;28;20129;-67
2023/12/02 11:20:22;;;;;;;24.75;9.13;;;;;;;;;;5027424;28;20029;-67
2023/12/02 11:22:56;;;;;;;27.20;8.77;;;;;;;;;;5012530;28;20100;-67
2023/12/02 11:25:40;;;;;;;17.90;8.13;;;;;;;;;;5001713;28;20117;-67
2023/12/02 11:28:32;;;;;;;28.30;8.80;;;;;;;;;;5013039;28;20038;-67
2023/12/02 11:31:18;;;;;;;10.52;5.18;;;;;;;;;;5012926;28;20493;-67
2023/12/02 11:34:22;;;;;;;26.10;12.70;;;;;;;;;;5012618;28;20494;-67
2023/12/02 11:36:51;;;;;;;22.55;9.77;;;;;;;;;;5011179;28;20384;-67
2023/12/02 11:39:33;;;;;;;15.88;7.30;;;;;;;;;;5012817;28;20117;-67
2023/12/02 11:42:17;;;;;;;18.98;8.43;;;;;;;;;;5012872;28;20361;-67
2023/12/02 11:45:19;;;;;;;21.13;9.05;;;;;;;;;;4996808;28;20022;-67
2023/12/02 11:47:48;;;;;;;17.67;7.18;;;;;;;;;;5012725;28;20061;-67
2023/12/02 11:50:22;;;;;;;26.52;8.10;;;;;;;;;;5012683;28;20030;-67
2023/12/02 11:52:53;;;;;;;15.93;6.13;;;;;;;;;;5011415;28;20387;-66
2023/12/02 11:55:45;;;;;;;17.50;6.38;;;;;;;;;;5012896;28;20053;-66
2023/12/02 11:58:26;;;;;;;15.70;6.88;;;;;;;;;;4971491;28;20126;-66
2023/12/02 12:00:52;;;;;;;13.90;6.63;;;;;;;;;;4971634;28;20105;-66
2023/12/02 12:03:17;;;;;;;21.50;7.95;;;;;;;;;;4971295;28;20129;-66
2023/12/02 12:06:12;;;;;;;19.25;7.65;;;;;;;;;;4971540;28;20093;-66
2023/12/02 12:08:49;;;;;;;14.50;6.68;;;;;;;;;;4971545;28;20042;-66
2023/12/02 12:11:16;;;;;;;13.75;5.60;;;;;;;;;;4956656;28;20027;-65
2023/12/02 12:13:45;;;;;;;18.92;6.50;;;;;;;;;;4951790;29;20047;-65
2023/12/02 12:16:10;;;;;;;16.85;6.72;;;;;;;;;;4952115;29;20046;-66
2023/12/02 12:18:36;;;;;;;19.33;7.13;;;;;;;;;;4951812;29;20464;-66
2023/12/02 12:21:03;;;;;;;19.25;7.32;;;;;;;;;;4959312;28;20031;-66
2023/12/02 12:23:31;;;;;;;15.25;6.40;;;;;;;;;;4971095;28;20053;-64
2023/12/02 12:25:58;;;;;;;13.40;6.03;;;;;;;;;;4954773;28;20101;-64
2023/12/02 12:28:25;;;;;;;24.88;9.85;;;;;;;;;;4971339;28;20039;-65
2023/12/02 12:30:50;;;;;;;25.33;10.27;;;;;;;;;;4971131;28;20034;-65
2023/12/02 12:33:20;;;;;;;23.42;9.90;;;;;;;;;;4971017;28;20400;-65
2023/12/02 12:35:47;;;;;;;45.05;16.98;;;;;;;;;;5000440;28;20149;-65
2023/12/02 12:38:14;;;;;;;26.50;9.82;;;;;;;;;;5010174;28;20042;-64
2023/12/02 12:40:41;;;;;;;16.58;7.30;;;;;;;;;;5011818;28;20022;-65
2023/12/02 12:43:08;;;;;;;15.45;6.88;;;;;;;;;;5012336;28;20033;-65
2023/12/02 12:45:34;;;;;;;16.00;5.75;;;;;;;;;;5011971;28;20030;-65
2023/12/02 12:48:01;;;;;;;15.35;5.88;;;;;;;;;;5012183;28;20041;-65
2023/12/02 12:50:30;;;;;;;13.35;5.97;;;;;;;;;;5012247;28;20096;-64
2023/12/02 12:53:11;;;;;;;19.05;6.70;;;;;;;;;;5012121;28;20530;-65
2023/12/02 12:55:42;;;;;;;33.17;9.55;;;;;;;;;;5010221;28;20045;-66
2023/12/02 12:58:14;;;;;;;17.98;7.05;;;;;;;;;;5010445;28;20026;-65
2023/12/02 13:00:41;;;;;;;22.88;9.23;;;;;;;;;;5012518;28;20507;-65
2023/12/02 13:03:25;;;;;;;19.40;8.27;;;;;;;;;;5015476;28;20021;-66
2023/12/02 13:06:09;;;;;;;21.80;7.55;;;;;;;;;;5015706;28;20474;-65
2023/12/02 13:08:42;;;;;;;22.88;7.82;;;;;;;;;;5015666;28;20296;-65
2023/12/02 13:11:11;;;;;;;21.38;6.97;;;;;;;;;;5029589;28;20032;-64
2023/12/02 13:13:40;;;;;;;16.27;6.47;;;;;;;;;;5035352;28;20435;-65
2023/12/02 13:16:07;;;;;;;16.65;5.85;;;;;;;;;;5035045;28;20165;-65
2023/12/02 13:18:34;;;;;;;21.52;8.27;;;;;;;;;;5033789;28;20037;-66
2023/12/02 13:21:01;;;;;;;22.35;8.48;;;;;;;;;;5024714;28;20032;-65
2023/12/02 13:23:27;;;;;;;26.52;8.55;;;;;;;;;;5015103;28;20030;-66
2023/12/02 13:25:57;;;;;;;23.83;8.07;;;;;;;;;;5014755;28;20096;-66
2023/12/02 13:28:32;;;;;;;28.60;9.10;;;;;;;;;;5015064;28;20037;-66
2023/12/02 13:31:02;;;;;;;25.15;8.32;;;;;;;;;;5014820;28;20057;-66
2023/12/02 13:33:38;;;;;;;;;;;;;;;;;;5026075;28;20562;-67
2023/12/02 13:36:12;;;;;;;16.65;5.97;;;;;;;;;;5018925;28;19961;-66
2023/12/02 13:38:57;;;;;;;21.10;7.05;;;;;;;;;;5013497;28;20026;-66
2023/12/02 13:41:31;;;;;;;16.55;6.50;;;;;;;;;;5014791;28;20065;-65
2023/12/02 13:43:58;;;;;;;27.30;11.45;;;;;;;;;;5013235;28;20490;-65
2023/12/02 13:46:35;;;;;;;25.60;9.43;;;;;;;;;;5014820;28;20087;-66
2023/12/02 13:49:15;;;;;;;20.88;8.30;;;;;;;;;;5014752;28;20026;-66
2023/12/02 13:51:45;;;;;;;68.70;28.35;;;;;;;;;;5014548;28;20018;-66
2023/12/02 13:54:37;;;;;;;28.05;11.75;;;;;;;;;;5013230;28;20479;-66
2023/12/02 13:57:34;;;;;;;30.05;10.73;;;;;;;;;;5014610;28;20109;-66
2023/12/02 14:00:10;;;;;;;31.23;12.70;;;;;;;;;;5014514;28;20030;-65
2023/12/02 14:02:39;;;;;;;31.85;11.02;;;;;;;;;;5014452;28;20357;-65
2023/12/02 14:05:05;;;;;;;33.72;13.48;;;;;;;;;;5014587;28;20030;-65
2023/12/02 14:07:37;;;;;;;38.85;15.80;;;;;;;;;;5014438;28;20044;-66
2023/12/02 14:10:06;;;;;;;35.38;13.80;;;;;;;;;;5014168;28;20033;-66
2023/12/02 14:12:49;;;;;;;66.80;20.55;;;;;;;;;;5012561;28;20446;-66
2023/12/02 14:15:44;;;;;;;74.80;22.85;;;;;;;;;;5014292;28;20046;-66
2023/12/02 14:18:21;;;;;;;89.97;28.30;;;;;;;;;;5013964;28;20026;-66
2023/12/02 14:21:13;;;;;;;46.90;16.48;;;;;;;;;;5013640;28;20376;-66
2023/12/02 14:23:55;;;;;;;35.50;10.75;;;;;;;;;;5014042;28;20018;-66
2023/12/02 14:26:56;;;;;;;25.33;8.98;;;;;;;;;;5013579;28;20041;-66
2023/12/02 14:29:24;;;;;;;34.03;15.65;;;;;;;;;;5013933;28;20092;-66
2023/12/02 14:32:27;;;;;;;80.47;22.92;;;;;;;;;;5014126;28;20471;-66
2023/12/02 14:35:09;;;;;;;165.98;37.53;;;;;;;;;;5013905;28;20038;-65
2023/12/02 14:37:46;;;;;;;98.95;29.90;;;;;;;;;;5013793;28;20030;-65
2023/12/02 14:40:19;;;;;;;24.45;10.13;;;;;;;;;;5013868;28;20026;-66
2023/12/02 14:43:31;;;;;;;24.98;9.48;;;;;;;;;;5013621;28;20060;-66